sensor_id;sensor_type;location;lat;lon;timestamp;pressure;altitude;pressure_sealevel;temperature;humidity
71476;BME280;59286;59.274;17.974;2024-01-11T00:01:57;101599.25;;;0.47;100.00
71476;BME280;59286;59.274;17.974;2024-01-11T00:04:22;101596.50;;;0.48;100.00
71476;BME280;59286;59.274;17.974;2024-01-11T00:06:49;101583.19;;;0.51;100.00
71476;BME280;59286;59.274;17.974;2024-01-11T00:09:15;101583.75;;;0.60;100.00
71476;BME280;59286;59.274;17.974;2024-01-11T00:11:40;101579.59;;;0.59;100.00
71476;BME280;59286;59.274;17.974;2024-01-11T00:14:05;101570.28;;;0.58;100.00
71476;BME280;59286;59.274;17.974;2024-01-11T00:16:31;101574.44;;;0.59;100.00
71476;BME280;59286;59.274;17.974;2024-01-11T00:18:56;101570.06;;;0.59;100.00
71476;BME280;59286;59.274;17.974;2024-01-11T00:21:21;101581.56;;;0.63;100.00
71476;BME280;59286;59.274;17.974;2024-01-11T00:23:48;101589.09;;;0.65;100.00
71476;BME280;59286;59.274;17.974;2024-01-11T00:26:13;101590.06;;;0.70;100.00
71476;BME280;59286;59.274;17.974;2024-01-11T00:28:39;101586.84;;;0.75;100.00
71476;BME280;59286;59.274;17.974;2024-01-11T00:31:04;101574.34;;;0.78;100.00
71476;BME280;59286;59.274;17.974;2024-01-11T00:33:30;101583.03;;;0.84;100.00
71476;BME280;59286;59.274;17.974;2024-01-11T00:35:55;101586.63;;;0.83;100.00
71476;BME280;59286;59.274;17.974;2024-01-11T00:38:20;101582.72;;;0.74;100.00
71476;BME280;59286;59.274;17.974;2024-01-11T00:40:46;101585.88;;;0.76;100.00
71476;BME280;59286;59.274;17.974;2024-01-11T00:43:11;101589.44;;;0.75;100.00
71476;BME280;59286;59.274;17.974;2024-01-11T00:45:37;101597.38;;;0.80;100.00
71476;BME280;59286;59.274;17.974;2024-01-11T00:48:02;101593.03;;;0.74;100.00
71476;BME280;59286;59.274;17.974;2024-01-11T00:50:28;101595.03;;;0.72;100.00
71476;BME280;59286;59.274;17.974;2024-01-11T00:52:53;101597.44;;;0.67;100.00
71476;BME280;59286;59.274;17.974;2024-01-11T00:55:19;101599.41;;;0.65;100.00
71476;BME280;59286;59.274;17.974;2024-01-11T00:57:44;101607.75;;;0.67;100.00
71476;BME280;59286;59.274;17.974;2024-01-11T01:00:10;101611.31;;;0.66;100.00
71476;BME280;59286;59.274;17.974;2024-01-11T01:02:39;101600.22;;;0.59;100.00
71476;BME280;59286;59.274;17.974;2024-01-11T01:05:05;101591.09;;;0.56;100.00
71476;BME280;59286;59.274;17.974;2024-01-11T01:07:31;101591.91;;;0.57;100.00
71476;BME280;59286;59.274;17.974;2024-01-11T01:09:56;101594.09;;;0.53;100.00
71476;BME280;59286;59.274;17.974;2024-01-11T01:12:22;101604.22;;;0.55;100.00
71476;BME280;59286;59.274;17.974;2024-01-11T01:14:47;101603.81;;;0.51;100.00
71476;BME280;59286;59.274;17.974;2024-01-11T01:17:12;101602.63;;;0.54;100.00
71476;BME280;59286;59.274;17.974;2024-01-11T01:19:38;101598.66;;;0.51;100.00
71476;BME280;59286;59.274;17.974;2024-01-11T01:22:03;101609.19;;;0.50;100.00
71476;BME280;59286;59.274;17.974;2024-01-11T01:24:28;101608.19;;;0.51;100.00
71476;BME280;59286;59.274;17.974;2024-01-11T01:26:54;101594.31;;;0.52;100.00
71476;BME280;59286;59.274;17.974;2024-01-11T01:29:19;101601.47;;;0.50;100.00
71476;BME280;59286;59.274;17.974;2024-01-11T01:31:44;101591.13;;;0.50;100.00
71476;BME280;59286;59.274;17.974;2024-01-11T01:34:10;101594.31;;;0.52;100.00
71476;BME280;59286;59.274;17.974;2024-01-11T01:36:35;101584.59;;;0.54;100.00
71476;BME280;59286;59.274;17.974;2024-01-11T01:39:00;101595.66;;;0.54;100.00
71476;BME280;59286;59.274;17.974;2024-01-11T01:41:26;101593.72;;;0.50;100.00
71476;BME280;59286;59.274;17.974;2024-01-11T01:43:51;101596.25;;;0.56;100.00
71476;BME280;59286;59.274;17.974;2024-01-11T01:46:22;101598.84;;;0.56;100.00
71476;BME280;59286;59.274;17.974;2024-01-11T01:48:48;101603.22;;;0.56;100.00
71476;BME280;59286;59.274;17.974;2024-01-11T01:51:14;101593.53;;;0.45;100.00
71476;BME280;59286;59.274;17.974;2024-01-11T01:53:40;101605.44;;;0.46;100.00
71476;BME280;59286;59.274;17.974;2024-01-11T01:56:06;101597.69;;;0.46;100.00
71476;BME280;59286;59.274;17.974;2024-01-11T01:58:34;101603.44;;;0.41;100.00
71476;BME280;59286;59.274;17.974;2024-01-11T02:01:00;101609.00;;;0.45;100.00
71476;BME280;59286;59.274;17.974;2024-01-11T02:03:28;101622.09;;;0.43;100.00
71476;BME280;59286;59.274;17.974;2024-01-11T02:05:54;101597.91;;;0.38;100.00
71476;BME280;59286;59.274;17.974;2024-01-11T02:08:22;101596.88;;;0.45;100.00
71476;BME280;59286;59.274;17.974;2024-01-11T02:10:48;101603.22;;;0.49;100.00
71476;BME280;59286;59.274;17.974;2024-01-11T02:13:13;101590.53;;;0.48;100.00
71476;BME280;59286;59.274;17.974;2024-01-11T02:15:39;101597.06;;;0.57;100.00
71476;BME280;59286;59.274;17.974;2024-01-11T02:18:04;101608.56;;;0.61;100.00
71476;BME280;59286;59.274;17.974;2024-01-11T02:20:31;101615.50;;;0.67;100.00
71476;BME280;59286;59.274;17.974;2024-01-11T02:23:01;101614.06;;;0.71;100.00
71476;BME280;59286;59.274;17.974;2024-01-11T02:25:28;101599.22;;;0.60;100.00
71476;BME280;59286;59.274;17.974;2024-01-11T02:27:54;101609.16;;;0.63;100.00
71476;BME280;59286;59.274;17.974;2024-01-11T02:30:19;101609.16;;;0.63;100.00
71476;BME280;59286;59.274;17.974;2024-01-11T02:32:46;101601.47;;;0.50;100.00
71476;BME280;59286;59.274;17.974;2024-01-11T02:35:13;101590.13;;;0.51;100.00
71476;BME280;59286;59.274;17.974;2024-01-11T02:37:39;101595.50;;;0.56;100.00
71476;BME280;59286;59.274;17.974;2024-01-11T02:40:07;101590.94;;;0.58;100.00
71476;BME280;59286;59.274;17.974;2024-01-11T02:42:33;101588.13;;;0.59;100.00
71476;BME280;59286;59.274;17.974;2024-01-11T02:44:59;101604.38;;;0.60;100.00
71476;BME280;59286;59.274;17.974;2024-01-11T02:47:24;101584.16;;;0.57;100.00
71476;BME280;59286;59.274;17.974;2024-01-11T02:49:50;101588.50;;;0.63;100.00
71476;BME280;59286;59.274;17.974;2024-01-11T02:52:16;101589.31;;;0.63;100.00
71476;BME280;59286;59.274;17.974;2024-01-11T02:54:41;101582.38;;;0.57;100.00
71476;BME280;59286;59.274;17.974;2024-01-11T02:57:06;101598.25;;;0.61;100.00
71476;BME280;59286;59.274;17.974;2024-01-11T02:59:32;101600.59;;;0.69;100.00
71476;BME280;59286;59.274;17.974;2024-01-11T03:01:57;101587.94;;;0.61;100.00
71476;BME280;59286;59.274;17.974;2024-01-11T03:04:22;101592.88;;;0.69;100.00
71476;BME280;59286;59.274;17.974;2024-01-11T03:06:48;101608.06;;;0.83;100.00
71476;BME280;59286;59.274;17.974;2024-01-11T03:09:13;101609.81;;;0.96;100.00
71476;BME280;59286;59.274;17.974;2024-01-11T03:11:38;101605.41;;;1.03;100.00
71476;BME280;59286;59.274;17.974;2024-01-11T03:14:04;101604.75;;;1.14;100.00
71476;BME280;59286;59.274;17.974;2024-01-11T03:16:29;101604.75;;;1.14;100.00
71476;BME280;59286;59.274;17.974;2024-01-11T03:18:54;101601.75;;;1.17;100.00
71476;BME280;59286;59.274;17.974;2024-01-11T03:21:20;101606.06;;;1.23;100.00
71476;BME280;59286;59.274;17.974;2024-01-11T03:23:46;101611.78;;;1.32;100.00
71476;BME280;59286;59.274;17.974;2024-01-11T03:26:18;101605.97;;;1.43;100.00
71476;BME280;59286;59.274;17.974;2024-01-11T03:28:43;101611.56;;;1.40;100.00
71476;BME280;59286;59.274;17.974;2024-01-11T03:31:09;101608.47;;;1.49;100.00
71476;BME280;59286;59.274;17.974;2024-01-11T03:33:35;101612.81;;;1.55;100.00
71476;BME280;59286;59.274;17.974;2024-01-11T03:36:10;101610.81;;;1.57;100.00
71476;BME280;59286;59.274;17.974;2024-01-11T03:38:36;101604.66;;;1.58;100.00
71476;BME280;59286;59.274;17.974;2024-01-11T03:41:02;101609.63;;;1.60;100.00
71476;BME280;59286;59.274;17.974;2024-01-11T03:43:32;101612.16;;;1.66;100.00
71476;BME280;59286;59.274;17.974;2024-01-11T03:45:57;101607.56;;;1.68;100.00
71476;BME280;59286;59.274;17.974;2024-01-11T03:48:23;101608.13;;;1.70;100.00
71476;BME280;59286;59.274;17.974;2024-01-11T03:50:48;101603.81;;;1.64;100.00
71476;BME280;59286;59.274;17.974;2024-01-11T03:53:13;101613.75;;;1.67;100.00
71476;BME280;59286;59.274;17.974;2024-01-11T03:55:38;101604.00;;;1.69;100.00
71476;BME280;59286;59.274;17.974;2024-01-11T03:58:04;101602.72;;;1.78;100.00
71476;BME280;59286;59.274;17.974;2024-01-11T04:00:29;101601.09;;;1.84;100.00
71476;BME280;59286;59.274;17.974;2024-01-11T04:02:54;101615.31;;;1.93;100.00
71476;BME280;59286;59.274;17.974;2024-01-11T04:05:19;101612.88;;;1.98;100.00
71476;BME280;59286;59.274;17.974;2024-01-11T04:07:45;101610.06;;;1.99;100.00
71476;BME280;59286;59.274;17.974;2024-01-11T04:10:10;101601.69;;;2.04;100.00
71476;BME280;59286;59.274;17.974;2024-01-11T04:12:36;101606.25;;;2.09;100.00
71476;BME280;59286;59.274;17.974;2024-01-11T04:15:02;101608.13;;;2.20;100.00
71476;BME280;59286;59.274;17.974;2024-01-11T04:17:27;101605.09;;;2.23;100.00
71476;BME280;59286;59.274;17.974;2024-01-11T04:19:53;101607.91;;;2.21;100.00
71476;BME280;59286;59.274;17.974;2024-01-11T04:22:18;101616.22;;;2.23;100.00
71476;BME280;59286;59.274;17.974;2024-01-11T04:24:43;101614.16;;;2.32;100.00
71476;BME280;59286;59.274;17.974;2024-01-11T04:27:09;101614.16;;;2.32;100.00
71476;BME280;59286;59.274;17.974;2024-01-11T04:29:34;101614.16;;;2.32;100.00
71476;BME280;59286;59.274;17.974;2024-01-11T04:31:59;101617.59;;;2.26;100.00
71476;BME280;59286;59.274;17.974;2024-01-11T04:34:24;101607.63;;;2.29;100.00
71476;BME280;59286;59.274;17.974;2024-01-11T04:36:50;101608.97;;;2.32;100.00
71476;BME280;59286;59.274;17.974;2024-01-11T04:39:15;101615.56;;;2.28;100.00
71476;BME280;59286;59.274;17.974;2024-01-11T04:41:41;101607.03;;;2.27;100.00
71476;BME280;59286;59.274;17.974;2024-01-11T04:44:06;101622.94;;;2.31;100.00
71476;BME280;59286;59.274;17.974;2024-01-11T04:46:31;101624.22;;;2.40;100.00
71476;BME280;59286;59.274;17.974;2024-01-11T04:48:57;101636.09;;;2.47;100.00
71476;BME280;59286;59.274;17.974;2024-01-11T04:51:22;101638.69;;;2.47;100.00
71476;BME280;59286;59.274;17.974;2024-01-11T04:53:47;101655.50;;;2.56;100.00
71476;BME280;59286;59.274;17.974;2024-01-11T04:56:16;101652.84;;;2.63;100.00
71476;BME280;59286;59.274;17.974;2024-01-11T04:58:43;101680.50;;;2.80;100.00
71476;BME280;59286;59.274;17.974;2024-01-11T05:01:16;101692.06;;;2.78;100.00
71476;BME280;59286;59.274;17.974;2024-01-11T05:03:42;101702.44;;;2.78;100.00
71476;BME280;59286;59.274;17.974;2024-01-11T05:06:08;101716.19;;;2.78;100.00
71476;BME280;59286;59.274;17.974;2024-01-11T05:08:33;101722.38;;;2.77;100.00
71476;BME280;59286;59.274;17.974;2024-01-11T05:10:59;101715.25;;;2.73;100.00
71476;BME280;59286;59.274;17.974;2024-01-11T05:13:24;101724.97;;;2.77;100.00
71476;BME280;59286;59.274;17.974;2024-01-11T05:15:49;101728.91;;;2.80;100.00
71476;BME280;59286;59.274;17.974;2024-01-11T05:18:15;101732.72;;;2.77;100.00
71476;BME280;59286;59.274;17.974;2024-01-11T05:20:40;101739.47;;;2.78;100.00
71476;BME280;59286;59.274;17.974;2024-01-11T05:23:06;101741.91;;;2.73;100.00
71476;BME280;59286;59.274;17.974;2024-01-11T05:25:31;101735.59;;;2.69;100.00
71476;BME280;59286;59.274;17.974;2024-01-11T05:28:03;101751.56;;;2.66;100.00
71476;BME280;59286;59.274;17.974;2024-01-11T05:30:29;101746.75;;;2.70;100.00
71476;BME280;59286;59.274;17.974;2024-01-11T05:32:55;101735.22;;;2.66;100.00
71476;BME280;59286;59.274;17.974;2024-01-11T05:35:21;101726.53;;;2.60;100.00
71476;BME280;59286;59.274;17.974;2024-01-11T05:37:49;101741.09;;;2.55;100.00
71476;BME280;59286;59.274;17.974;2024-01-11T05:40:14;101741.38;;;2.47;100.00
71476;BME280;59286;59.274;17.974;2024-01-11T05:42:40;101741.94;;;2.49;100.00
71476;BME280;59286;59.274;17.974;2024-01-11T05:45:05;101741.44;;;2.40;100.00
71476;BME280;59286;59.274;17.974;2024-01-11T05:47:31;101755.13;;;2.41;100.00
71476;BME280;59286;59.274;17.974;2024-01-11T05:49:56;101755.78;;;2.36;100.00
71476;BME280;59286;59.274;17.974;2024-01-11T05:52:22;101742.84;;;2.36;100.00
71476;BME280;59286;59.274;17.974;2024-01-11T05:54:47;101755.44;;;2.33;100.00
71476;BME280;59286;59.274;17.974;2024-01-11T05:57:12;101759.00;;;2.32;100.00
71476;BME280;59286;59.274;17.974;2024-01-11T05:59:43;101769.13;;;2.33;100.00
71476;BME280;59286;59.274;17.974;2024-01-11T06:02:09;101762.59;;;2.31;100.00
71476;BME280;59286;59.274;17.974;2024-01-11T06:04:34;101764.63;;;2.22;100.00
71476;BME280;59286;59.274;17.974;2024-01-11T06:06:59;101774.63;;;2.19;100.00
71476;BME280;59286;59.274;17.974;2024-01-11T06:09:26;101780.94;;;2.23;100.00
71476;BME280;59286;59.274;17.974;2024-01-11T06:11:51;101791.66;;;2.26;100.00
71476;BME280;59286;59.274;17.974;2024-01-11T06:14:16;101788.72;;;2.23;100.00
71476;BME280;59286;59.274;17.974;2024-01-11T06:16:41;101797.84;;;2.25;100.00
71476;BME280;59286;59.274;17.974;2024-01-11T06:19:08;101810.41;;;2.22;100.00
71476;BME280;59286;59.274;17.974;2024-01-11T06:21:34;101797.88;;;2.19;100.00
71476;BME280;59286;59.274;17.974;2024-01-11T06:23:59;101799.28;;;2.21;100.00
71476;BME280;59286;59.274;17.974;2024-01-11T06:26:25;101812.22;;;2.21;100.00
71476;BME280;59286;59.274;17.974;2024-01-11T06:28:50;101823.53;;;2.20;100.00
71476;BME280;59286;59.274;17.974;2024-01-11T06:31:15;101814.03;;;2.14;100.00
71476;BME280;59286;59.274;17.974;2024-01-11T06:33:40;101822.75;;;2.20;100.00
71476;BME280;59286;59.274;17.974;2024-01-11T06:36:06;101829.72;;;2.19;100.00
71476;BME280;59286;59.274;17.974;2024-01-11T06:38:35;101836.31;;;2.15;100.00
71476;BME280;59286;59.274;17.974;2024-01-11T06:41:00;101842.69;;;2.13;100.00
71476;BME280;59286;59.274;17.974;2024-01-11T06:43:25;101859.38;;;2.17;100.00
71476;BME280;59286;59.274;17.974;2024-01-11T06:45:51;101850.66;;;2.11;100.00
71476;BME280;59286;59.274;17.974;2024-01-11T06:48:17;101864.97;;;2.14;100.00
71476;BME280;59286;59.274;17.974;2024-01-11T06:50:42;101859.78;;;2.14;100.00
71476;BME280;59286;59.274;17.974;2024-01-11T06:53:08;101858.19;;;2.13;100.00
71476;BME280;59286;59.274;17.974;2024-01-11T06:55:33;101859.03;;;2.07;100.00
71476;BME280;59286;59.274;17.974;2024-01-11T06:57:58;101870.97;;;2.08;100.00
71476;BME280;59286;59.274;17.974;2024-01-11T07:00:24;101860.06;;;1.99;100.00
71476;BME280;59286;59.274;17.974;2024-01-11T07:02:51;101885.28;;;2.10;100.00
71476;BME280;59286;59.274;17.974;2024-01-11T07:05:18;101874.34;;;2.02;100.00
71476;BME280;59286;59.274;17.974;2024-01-11T07:07:43;101892.47;;;2.02;100.00
71476;BME280;59286;59.274;17.974;2024-01-11T07:10:09;101890.28;;;1.98;100.00
71476;BME280;59286;59.274;17.974;2024-01-11T07:12:34;101904.78;;;1.99;100.00
71476;BME280;59286;59.274;17.974;2024-01-11T07:15:00;101908.97;;;2.01;100.00
71476;BME280;59286;59.274;17.974;2024-01-11T07:17:25;101913.72;;;2.04;100.00
71476;BME280;59286;59.274;17.974;2024-01-11T07:19:50;101913.56;;;1.98;100.00
71476;BME280;59286;59.274;17.974;2024-01-11T07:22:16;101916.34;;;1.97;100.00
71476;BME280;59286;59.274;17.974;2024-01-11T07:24:41;101916.97;;;1.92;100.00
71476;BME280;59286;59.274;17.974;2024-01-11T07:27:07;101925.91;;;1.96;100.00
71476;BME280;59286;59.274;17.974;2024-01-11T07:29:33;101935.66;;;1.94;100.00
71476;BME280;59286;59.274;17.974;2024-01-11T07:31:59;101934.28;;;1.85;100.00
71476;BME280;59286;59.274;17.974;2024-01-11T07:34:26;101929.31;;;1.84;100.00
71476;BME280;59286;59.274;17.974;2024-01-11T07:36:52;101941.88;;;1.80;100.00
71476;BME280;59286;59.274;17.974;2024-01-11T07:39:17;101955.97;;;1.84;100.00
71476;BME280;59286;59.274;17.974;2024-01-11T07:41:43;101953.56;;;1.89;100.00
71476;BME280;59286;59.274;17.974;2024-01-11T07:44:08;101960.13;;;1.85;100.00
71476;BME280;59286;59.274;17.974;2024-01-11T07:46:33;101955.78;;;1.86;100.00
71476;BME280;59286;59.274;17.974;2024-01-11T07:48:59;101966.31;;;1.84;100.00
71476;BME280;59286;59.274;17.974;2024-01-11T07:51:24;101986.00;;;1.85;100.00
71476;BME280;59286;59.274;17.974;2024-01-11T07:53:50;101986.56;;;1.81;100.00
71476;BME280;59286;59.274;17.974;2024-01-11T07:56:15;101997.72;;;1.81;100.00
71476;BME280;59286;59.274;17.974;2024-01-11T07:58:42;101995.94;;;1.75;100.00
71476;BME280;59286;59.274;17.974;2024-01-11T08:01:07;101991.19;;;1.72;100.00
71476;BME280;59286;59.274;17.974;2024-01-11T08:03:32;101986.59;;;1.74;100.00
71476;BME280;59286;59.274;17.974;2024-01-11T08:06:00;101999.53;;;1.74;100.00
71476;BME280;59286;59.274;17.974;2024-01-11T08:08:25;102009.44;;;1.77;100.00
71476;BME280;59286;59.274;17.974;2024-01-11T08:10:51;102016.81;;;1.80;100.00
71476;BME280;59286;59.274;17.974;2024-01-11T08:13:16;102019.78;;;1.84;100.00
71476;BME280;59286;59.274;17.974;2024-01-11T08:15:43;102025.56;;;1.79;100.00
71476;BME280;59286;59.274;17.974;2024-01-11T08:18:08;102026.56;;;1.78;100.00
71476;BME280;59286;59.274;17.974;2024-01-11T08:20:33;102028.13;;;1.79;100.00
71476;BME280;59286;59.274;17.974;2024-01-11T08:22:59;102031.31;;;1.81;100.00
71476;BME280;59286;59.274;17.974;2024-01-11T08:25:24;102028.13;;;1.79;100.00
71476;BME280;59286;59.274;17.974;2024-01-11T08:27:50;102052.41;;;1.91;100.00
71476;BME280;59286;59.274;17.974;2024-01-11T08:30:15;102040.88;;;1.87;97.99
71476;BME280;59286;59.274;17.974;2024-01-11T08:32:41;102042.84;;;1.92;97.93
71476;BME280;59286;59.274;17.974;2024-01-11T08:35:11;102073.84;;;1.98;98.66
71476;BME280;59286;59.274;17.974;2024-01-11T08:37:36;102076.63;;;2.04;99.59
71476;BME280;59286;59.274;17.974;2024-01-11T08:40:02;102075.03;;;2.09;99.54
71476;BME280;59286;59.274;17.974;2024-01-11T08:42:30;102068.88;;;2.04;100.00
71476;BME280;59286;59.274;17.974;2024-01-11T08:44:55;102084.00;;;2.07;100.00
71476;BME280;59286;59.274;17.974;2024-01-11T08:47:20;102080.59;;;1.99;100.00
71476;BME280;59286;59.274;17.974;2024-01-11T08:49:46;102097.72;;;2.01;100.00
71476;BME280;59286;59.274;17.974;2024-01-11T08:52:11;102094.53;;;1.98;100.00
71476;BME280;59286;59.274;17.974;2024-01-11T08:54:36;102096.34;;;1.91;100.00
71476;BME280;59286;59.274;17.974;2024-01-11T08:57:02;102111.06;;;1.98;100.00
71476;BME280;59286;59.274;17.974;2024-01-11T08:59:28;102113.03;;;1.89;100.00
71476;BME280;59286;59.274;17.974;2024-01-11T09:01:53;102113.84;;;1.89;100.00
71476;BME280;59286;59.274;17.974;2024-01-11T09:04:19;102126.34;;;1.92;99.87
71476;BME280;59286;59.274;17.974;2024-01-11T09:06:44;102136.72;;;1.99;98.87
71476;BME280;59286;59.274;17.974;2024-01-11T09:09:11;102140.28;;;1.98;99.80
71476;BME280;59286;59.274;17.974;2024-01-11T09:11:39;102147.84;;;1.99;100.00
71476;BME280;59286;59.274;17.974;2024-01-11T09:14:05;102139.06;;;1.94;100.00
71476;BME280;59286;59.274;17.974;2024-01-11T09:16:31;102133.13;;;1.80;100.00
71476;BME280;59286;59.274;17.974;2024-01-11T09:18:56;102135.72;;;1.80;100.00
71476;BME280;59286;59.274;17.974;2024-01-11T09:21:22;102137.09;;;1.76;100.00
71476;BME280;59286;59.274;17.974;2024-01-11T09:23:47;102133.72;;;1.69;99.60
71476;BME280;59286;59.274;17.974;2024-01-11T09:26:12;102146.03;;;1.61;98.65
71476;BME280;59286;59.274;17.974;2024-01-11T09:28:38;102160.16;;;1.58;98.30
71476;BME280;59286;59.274;17.974;2024-01-11T09:31:03;102149.22;;;1.56;97.15
71476;BME280;59286;59.274;17.974;2024-01-11T09:33:29;102152.97;;;1.54;95.87
71476;BME280;59286;59.274;17.974;2024-01-11T09:35:54;102152.38;;;1.45;93.87
71476;BME280;59286;59.274;17.974;2024-01-11T09:38:21;102162.47;;;1.34;93.29
71476;BME280;59286;59.274;17.974;2024-01-11T09:40:58;102157.28;;;1.21;92.11
71476;BME280;59286;59.274;17.974;2024-01-11T09:43:29;102157.22;;;1.14;90.58
71476;BME280;59286;59.274;17.974;2024-01-11T09:45:55;102157.28;;;1.21;90.58
71476;BME280;59286;59.274;17.974;2024-01-11T09:48:23;102164.38;;;1.12;90.60
71476;BME280;59286;59.274;17.974;2024-01-11T09:50:50;102171.50;;;1.10;91.13
71476;BME280;59286;59.274;17.974;2024-01-11T09:53:16;102171.09;;;1.07;91.77
71476;BME280;59286;59.274;17.974;2024-01-11T09:55:44;102181.63;;;1.05;92.39
71476;BME280;59286;59.274;17.974;2024-01-11T09:58:09;102180.25;;;1.03;92.35
71476;BME280;59286;59.274;17.974;2024-01-11T10:00:35;102168.09;;;0.96;92.43
71476;BME280;59286;59.274;17.974;2024-01-11T10:03:01;102192.97;;;1.11;92.44
71476;BME280;59286;59.274;17.974;2024-01-11T10:05:27;102187.41;;;1.07;92.46
71476;BME280;59286;59.274;17.974;2024-01-11T10:07:53;102194.59;;;1.12;92.41
71476;BME280;59286;59.274;17.974;2024-01-11T10:10:18;102192.59;;;1.14;92.13
71476;BME280;59286;59.274;17.974;2024-01-11T10:12:44;102192.78;;;1.12;90.74
71476;BME280;59286;59.274;17.974;2024-01-11T10:15:10;102205.53;;;1.20;90.86
71476;BME280;59286;59.274;17.974;2024-01-11T10:17:40;102213.66;;;1.17;90.20
71476;BME280;59286;59.274;17.974;2024-01-11T10:20:05;102209.47;;;1.16;89.06
71476;BME280;59286;59.274;17.974;2024-01-11T10:22:35;102213.44;;;1.12;87.04
71476;BME280;59286;59.274;17.974;2024-01-11T10:25:09;102221.97;;;1.13;88.21
71476;BME280;59286;59.274;17.974;2024-01-11T10:27:36;102219.75;;;1.03;86.17
71476;BME280;59286;59.274;17.974;2024-01-11T10:30:02;102238.28;;;1.13;87.45
71476;BME280;59286;59.274;17.974;2024-01-11T10:32:28;102238.63;;;1.10;86.11
71476;BME280;59286;59.274;17.974;2024-01-11T10:34:53;102239.44;;;1.11;84.67
71476;BME280;59286;59.274;17.974;2024-01-11T10:37:20;102252.13;;;1.06;84.86
71476;BME280;59286;59.274;17.974;2024-01-11T10:39:48;102261.88;;;1.10;84.51
71476;BME280;59286;59.274;17.974;2024-01-11T10:42:18;102275.41;;;1.12;84.59
71476;BME280;59286;59.274;17.974;2024-01-11T10:44:46;102271.63;;;1.08;84.58
71476;BME280;59286;59.274;17.974;2024-01-11T10:47:13;102274.72;;;0.97;82.81
71476;BME280;59286;59.274;17.974;2024-01-11T10:49:40;102289.44;;;1.03;84.49
71476;BME280;59286;59.274;17.974;2024-01-11T10:52:07;102302.34;;;1.03;84.70
71476;BME280;59286;59.274;17.974;2024-01-11T10:54:34;102282.44;;;0.97;83.46
71476;BME280;59286;59.274;17.974;2024-01-11T10:57:00;102285.41;;;0.94;81.32
71476;BME280;59286;59.274;17.974;2024-01-11T10:59:26;102302.56;;;1.02;81.79
71476;BME280;59286;59.274;17.974;2024-01-11T11:01:53;102301.38;;;1.04;78.82
71476;BME280;59286;59.274;17.974;2024-01-11T11:04:21;102304.75;;;1.05;79.13
71476;BME280;59286;59.274;17.974;2024-01-11T11:06:49;102306.22;;;1.14;77.54
71476;BME280;59286;59.274;17.974;2024-01-11T11:09:17;102308.53;;;1.09;75.30
71476;BME280;59286;59.274;17.974;2024-01-11T11:11:42;102302.53;;;0.95;76.66
71476;BME280;59286;59.274;17.974;2024-01-11T11:14:09;102309.19;;;0.83;75.80
71476;BME280;59286;59.274;17.974;2024-01-11T11:16:35;102303.53;;;0.73;77.81
71476;BME280;59286;59.274;17.974;2024-01-11T11:19:00;102316.59;;;0.65;77.96
71476;BME280;59286;59.274;17.974;2024-01-11T11:21:26;102314.13;;;0.57;77.88
71476;BME280;59286;59.274;17.974;2024-01-11T11:23:52;102308.13;;;0.50;77.88
71476;BME280;59286;59.274;17.974;2024-01-11T11:26:17;102319.66;;;0.54;78.30
71476;BME280;59286;59.274;17.974;2024-01-11T11:28:43;102322.47;;;0.59;78.24
71476;BME280;59286;59.274;17.974;2024-01-11T11:31:10;102337.13;;;0.52;77.34
71476;BME280;59286;59.274;17.974;2024-01-11T11:33:36;102346.84;;;0.56;77.64
71476;BME280;59286;59.274;17.974;2024-01-11T11:36:02;102343.94;;;0.59;77.25
71476;BME280;59286;59.274;17.974;2024-01-11T11:38:30;102338.78;;;0.59;77.08
71476;BME280;59286;59.274;17.974;2024-01-11T11:40:57;102343.53;;;0.62;76.76
71476;BME280;59286;59.274;17.974;2024-01-11T11:43:24;102339.31;;;0.55;74.22
71476;BME280;59286;59.274;17.974;2024-01-11T11:45:52;102350.25;;;0.57;75.77
71476;BME280;59286;59.274;17.974;2024-01-11T11:53:33;102362.53;;;0.55;75.39
71476;BME280;59286;59.274;17.974;2024-01-11T11:55:59;102342.19;;;0.45;75.40
71476;BME280;59286;59.274;17.974;2024-01-11T11:58:25;102354.47;;;0.43;75.22
71476;BME280;59286;59.274;17.974;2024-01-11T12:00:50;102363.81;;;0.44;75.00
71476;BME280;59286;59.274;17.974;2024-01-11T12:03:16;102360.00;;;0.40;74.64
71476;BME280;59286;59.274;17.974;2024-01-11T12:05:42;102356.38;;;0.35;74.86
71476;BME280;59286;59.274;17.974;2024-01-11T12:08:08;102370.13;;;0.42;75.13
71476;BME280;59286;59.274;17.974;2024-01-11T12:10:33;102356.81;;;0.38;74.34
71476;BME280;59286;59.274;17.974;2024-01-11T12:12:59;102373.88;;;0.39;74.46
71476;BME280;59286;59.274;17.974;2024-01-11T12:15:27;102365.09;;;0.34;71.57
71476;BME280;59286;59.274;17.974;2024-01-11T12:17:59;102360.31;;;0.31;72.11
71476;BME280;59286;59.274;17.974;2024-01-11T12:20:24;102388.13;;;0.35;72.37
71476;BME280;59286;59.274;17.974;2024-01-11T12:22:49;102378.34;;;0.31;72.75
71476;BME280;59286;59.274;17.974;2024-01-11T12:25:15;102373.94;;;0.25;73.25
71476;BME280;59286;59.274;17.974;2024-01-11T12:27:42;102375.34;;;0.27;73.46
71476;BME280;59286;59.274;17.974;2024-01-11T12:30:07;102389.28;;;0.33;73.98
71476;BME280;59286;59.274;17.974;2024-01-11T12:32:36;102391.00;;;0.26;73.11
71476;BME280;59286;59.274;17.974;2024-01-11T12:35:01;102394.38;;;0.26;73.01
71476;BME280;59286;59.274;17.974;2024-01-11T12:37:30;102399.66;;;0.18;71.65
71476;BME280;59286;59.274;17.974;2024-01-11T12:39:58;102407.38;;;0.18;72.40
71476;BME280;59286;59.274;17.974;2024-01-11T12:42:27;102401.16;;;0.13;73.11